createdAt,value
2023-04-05T00:00:49.187Z,98.49
2023-04-05T00:01:49.172Z,98.38
2023-04-05T00:02:49.505Z,99.64
2023-04-05T00:03:49.477Z,99.01
2023-04-05T00:04:49.396Z,98.80
2023-04-05T00:05:49.353Z,98.07
2023-04-05T00:06:49.438Z,98.95
2023-04-05T00:07:49.387Z,96.44
2023-04-05T00:08:48.588Z,96.02
2023-04-05T00:09:50.103Z,97.17
2023-04-05T00:10:49.282Z,97.44
2023-04-05T00:11:49.267Z,97.13
2023-04-05T00:12:49.260Z,97.34
2023-04-05T00:13:49.910Z,97.86
2023-04-05T00:14:49.217Z,97.96
2023-04-05T00:15:49.244Z,98.59
2023-04-05T00:16:49.266Z,97.86
2023-04-05T00:17:49.219Z,98.59
2023-04-05T00:18:49.196Z,97.55
2023-04-05T00:19:49.152Z,98.07
2023-04-05T00:20:49.872Z,97.44
2023-04-05T00:21:49.148Z,97.75
2023-04-05T00:22:49.125Z,98.38
2023-04-05T00:23:49.112Z,98.38
2023-04-05T00:24:48.384Z,97.23
2023-04-05T00:25:49.106Z,98.80
2023-04-05T00:26:49.246Z,98.38
2023-04-05T00:27:49.067Z,98.69
2023-04-05T00:28:49.054Z,98.80
2023-04-05T00:29:49.055Z,98.28
2023-04-05T00:30:48.618Z,97.23
2023-04-05T00:31:49.802Z,96.71
2023-04-05T00:32:48.302Z,95.87
2023-04-05T00:33:48.998Z,96.61
2023-04-05T00:34:48.940Z,97.23
2023-04-05T00:35:49.014Z,97.13
2023-04-05T00:36:48.956Z,98.07
2023-04-05T00:37:48.922Z,98.38
2023-04-05T00:38:48.924Z,96.81
2023-04-05T00:39:48.930Z,97.44
2023-04-05T00:40:48.391Z,97.34
2023-04-05T00:41:48.945Z,96.65
2023-04-05T00:42:48.886Z,96.65
2023-04-05T00:43:49.583Z,96.86
2023-04-05T00:44:48.420Z,96.65
2023-04-05T00:45:48.873Z,97.06
2023-04-05T00:46:49.485Z,96.12
2023-04-05T00:47:49.500Z,95.96
2023-04-05T00:48:48.060Z,94.18
2023-04-05T00:49:49.476Z,93.55
2023-04-05T00:50:48.089Z,94.07
2023-04-05T00:51:48.862Z,94.70
2023-04-05T00:52:48.736Z,93.80
2023-04-05T00:53:48.760Z,92.65
2023-04-05T00:54:48.690Z,92.65
2023-04-05T00:55:48.708Z,92.96
2023-04-05T00:56:48.005Z,93.07
2023-04-05T00:57:48.692Z,93.07
2023-04-05T00:58:48.735Z,92.65
2023-04-05T00:59:48.624Z,92.54
2023-04-05T01:00:48.490Z,92.23
2023-04-05T01:01:48.633Z,91.81
2023-04-05T01:02:49.335Z,91.08
2023-04-05T01:03:48.620Z,91.08
2023-04-05T01:04:47.974Z,90.13
2023-04-05T01:05:49.249Z,90.55
2023-04-05T01:06:48.592Z,91.08
2023-04-05T01:07:48.555Z,90.59
2023-04-05T01:08:48.528Z,91.43
2023-04-05T01:09:48.529Z,92.13
2023-04-05T01:10:48.482Z,92.33
2023-04-05T01:11:48.724Z,92.23
2023-04-05T01:12:48.493Z,92.69
2023-04-05T01:13:48.464Z,93.21
2023-04-05T01:14:48.451Z,94.06
2023-04-05T01:15:48.456Z,92.58
2023-04-05T01:16:48.420Z,90.91
2023-04-05T01:17:48.429Z,90.59
2023-04-05T01:18:48.416Z,90.80
2023-04-05T01:19:48.435Z,89.75
2023-04-05T01:20:47.637Z,89.86
2023-04-05T01:21:48.382Z,89.65
2023-04-05T01:22:48.339Z,88.81
2023-04-05T01:23:48.331Z,87.03
2023-04-05T01:24:48.335Z,87.13
2023-04-05T01:25:48.286Z,87.76
2023-04-05T01:26:48.971Z,88.92
2023-04-05T01:27:48.283Z,89.23
2023-04-05T01:28:47.537Z,89.54
2023-04-05T01:29:48.249Z,88.71
2023-04-05T01:30:48.269Z,88.92
2023-04-05T01:31:48.228Z,89.75
2023-04-05T01:32:48.255Z,89.44
2023-04-05T01:33:48.198Z,89.97
2023-04-05T01:34:48.194Z,86.86
2023-04-05T01:35:48.177Z,88.12
2023-04-05T01:36:48.160Z,87.38
2023-04-05T01:37:48.150Z,88.43
2023-04-05T01:38:48.142Z,89.27
2023-04-05T01:39:48.823Z,89.59
2023-04-05T01:40:48.096Z,88.54
2023-04-05T01:41:48.378Z,87.59
2023-04-05T01:42:48.095Z,86.96
2023-04-05T01:43:49.001Z,87.91
2023-04-05T01:44:48.133Z,88.75
2023-04-05T01:45:47.586Z,88.64
2023-04-05T01:46:48.102Z,89.06
2023-04-05T01:47:48.052Z,88.96
2023-04-05T01:48:48.692Z,89.00
2023-04-05T01:49:47.999Z,87.95
2023-04-05T01:50:47.966Z,86.58
2023-04-05T01:51:47.971Z,88.05
2023-04-05T01:52:48.635Z,88.57
2023-04-05T01:53:47.945Z,87.95
2023-04-05T01:54:47.971Z,87.00
2023-04-05T01:55:47.895Z,86.90
2023-04-05T01:56:47.800Z,87.52
2023-04-05T01:57:47.923Z,88.26
2023-04-05T01:58:47.928Z,87.32
2023-04-05T01:59:47.660Z,87.00
2023-04-05T02:00:47.872Z,87.42
2023-04-05T02:01:47.843Z,86.20
2023-04-05T02:02:48.590Z,85.78
2023-04-05T02:03:48.039Z,86.83
2023-04-05T02:04:48.071Z,87.15
2023-04-05T02:05:47.687Z,87.36
2023-04-05T02:06:47.677Z,87.77
2023-04-05T02:07:47.791Z,87.88
2023-04-05T02:08:47.680Z,87.46
2023-04-05T02:09:47.753Z,85.36
2023-04-05T02:10:47.056Z,84.52
2023-04-05T02:11:47.713Z,85.15
2023-04-05T02:12:47.706Z,84.42
2023-04-05T02:13:48.685Z,85.25
2023-04-05T02:14:48.395Z,85.89
2023-04-05T02:15:48.406Z,84.73
2023-04-05T02:16:47.726Z,84.52
2023-04-05T02:17:47.679Z,83.89
2023-04-05T02:18:47.321Z,84.25
2023-04-05T02:19:47.641Z,85.61
2023-04-05T02:20:47.649Z,84.98
2023-04-05T02:21:47.584Z,84.25
2023-04-05T02:22:47.590Z,85.40
2023-04-05T02:23:48.232Z,85.82
2023-04-05T02:24:47.545Z,85.82
2023-04-05T02:25:48.252Z,85.61
2023-04-05T02:26:47.556Z,85.40
2023-04-05T02:27:47.532Z,86.03
2023-04-05T02:28:47.495Z,86.13
2023-04-05T02:29:47.279Z,86.03
2023-04-05T02:30:47.463Z,84.98
2023-04-05T02:31:47.349Z,83.72
2023-04-05T02:32:47.447Z,84.20
2023-04-05T02:33:47.454Z,85.15
2023-04-05T02:34:47.426Z,85.08
2023-04-05T02:35:47.432Z,85.78
2023-04-05T02:36:47.420Z,86.66
2023-04-05T02:37:47.429Z,86.13
2023-04-05T02:38:47.374Z,84.35
2023-04-05T02:39:47.373Z,84.25
2023-04-05T02:40:47.363Z,84.77
2023-04-05T02:41:47.337Z,85.08
2023-04-05T02:42:47.332Z,84.67
2023-04-05T02:43:47.313Z,84.03
2023-04-05T02:44:47.976Z,84.45
2023-04-05T02:45:48.038Z,84.03
2023-04-05T02:46:47.262Z,85.19
2023-04-05T02:47:47.304Z,84.35
2023-04-05T02:48:47.230Z,84.14
2023-04-05T02:49:47.226Z,84.70
2023-04-05T02:50:46.586Z,85.86
2023-04-05T02:51:47.175Z,84.91
2023-04-05T02:52:47.463Z,83.65
2023-04-05T02:53:46.585Z,84.91
2023-04-05T02:54:46.733Z,85.44
2023-04-05T02:55:46.602Z,83.86
2023-04-05T02:56:46.798Z,83.54
2023-04-05T02:57:47.812Z,83.54
2023-04-05T02:58:47.119Z,82.81
2023-04-05T02:59:47.108Z,83.13
2023-04-05T03:00:47.082Z,84.49
2023-04-05T03:01:47.061Z,83.86
2023-04-05T03:02:47.079Z,84.28
2023-04-05T03:03:46.745Z,83.23
2023-04-05T03:04:47.031Z,83.76
2023-04-05T03:05:47.030Z,82.50
2023-04-05T03:06:46.980Z,82.29
2023-04-05T03:07:46.995Z,83.13
2023-04-05T03:08:46.910Z,83.54
2023-04-05T03:09:47.210Z,83.13
2023-04-05T03:10:46.239Z,83.54
2023-04-05T03:11:46.942Z,84.08
2023-04-05T03:12:46.954Z,83.76
2023-04-05T03:13:46.910Z,83.65
2023-04-05T03:14:46.187Z,84.18
2023-04-05T03:15:46.879Z,85.02
2023-04-05T03:16:46.958Z,86.07
2023-04-05T03:17:46.898Z,86.91
2023-04-05T03:18:46.194Z,87.23
2023-04-05T03:19:46.836Z,86.38
2023-04-05T03:20:46.870Z,86.80
2023-04-05T03:21:46.785Z,85.86
2023-04-05T03:22:46.836Z,86.07
2023-04-05T03:23:46.804Z,85.96
2023-04-05T03:24:46.776Z,85.44
2023-04-05T03:25:46.764Z,85.65
2023-04-05T03:26:46.740Z,85.55
2023-04-05T03:27:46.737Z,84.81
2023-04-05T03:28:46.724Z,85.75
2023-04-05T03:29:46.717Z,85.02
2023-04-05T03:30:46.699Z,85.33
2023-04-05T03:31:47.381Z,84.91
2023-04-05T03:32:46.681Z,84.81
2023-04-05T03:33:46.653Z,85.65
2023-04-05T03:34:46.210Z,84.88
2023-04-05T03:35:47.317Z,85.72
2023-04-05T03:36:46.639Z,86.66
2023-04-05T03:37:47.289Z,86.98
2023-04-05T03:38:46.633Z,87.44
2023-04-05T03:39:46.603Z,87.33
2023-04-05T03:40:46.572Z,86.49
2023-04-05T03:41:46.528Z,85.75
2023-04-05T03:42:46.219Z,85.13
2023-04-05T03:43:46.522Z,85.13
2023-04-05T03:44:46.511Z,84.60
2023-04-05T03:45:46.552Z,84.18
2023-04-05T03:46:46.465Z,84.49
2023-04-05T03:47:46.488Z,84.81
2023-04-05T03:48:46.469Z,84.70
2023-04-05T03:49:46.442Z,85.55
2023-04-05T03:50:46.431Z,86.18
2023-04-05T03:51:46.409Z,86.38
2023-04-05T03:52:46.417Z,86.07
2023-04-05T03:53:46.392Z,85.13
2023-04-05T03:54:47.118Z,84.91
2023-04-05T03:55:46.377Z,85.13
2023-04-05T03:56:47.047Z,84.39
2023-04-05T03:57:46.341Z,83.76
2023-04-05T03:58:46.499Z,84.49
2023-04-05T03:59:46.314Z,85.02
2023-04-05T04:00:46.298Z,86.28
2023-04-05T04:01:46.280Z,87.23
2023-04-05T04:02:47.003Z,86.60
2023-04-05T04:03:46.310Z,86.07
2023-04-05T04:04:46.284Z,85.75
2023-04-05T04:05:46.393Z,85.65
2023-04-05T04:06:46.921Z,85.86
2023-04-05T04:07:46.280Z,86.18
2023-04-05T04:08:46.501Z,86.80
2023-04-05T04:09:46.188Z,86.95
2023-04-05T04:10:46.177Z,87.37
2023-04-05T04:11:46.155Z,88.74
2023-04-05T04:12:46.173Z,88.10
2023-04-05T04:13:45.476Z,87.83
2023-04-05T04:14:46.140Z,87.30
2023-04-05T04:15:46.114Z,87.52
2023-04-05T04:16:46.363Z,87.30
2023-04-05T04:17:46.129Z,86.57
2023-04-05T04:18:46.179Z,88.25
2023-04-05T04:19:46.056Z,88.18
2023-04-05T04:20:46.058Z,85.20
2023-04-05T04:21:46.009Z,85.13
2023-04-05T04:22:46.166Z,85.97
2023-04-05T04:23:46.078Z,84.19
2023-04-05T04:24:45.775Z,83.03
2023-04-05T04:25:46.659Z,81.77
2023-04-05T04:26:46.061Z,82.82
2023-04-05T04:27:45.946Z,83.87
2023-04-05T04:28:45.937Z,84.40
2023-04-05T04:29:45.943Z,83.76
2023-04-05T04:30:45.787Z,82.92
2023-04-05T04:31:45.256Z,83.24
2023-04-05T04:32:45.910Z,83.24
2023-04-05T04:33:45.921Z,81.56
2023-04-05T04:34:45.858Z,80.61
2023-04-05T04:35:45.902Z,79.56
2023-04-05T04:36:45.836Z,78.92
2023-04-05T04:37:45.798Z,79.56
2023-04-05T04:38:45.799Z,79.56
2023-04-05T04:39:45.131Z,81.13
2023-04-05T04:40:45.717Z,79.77
2023-04-05T04:41:45.785Z,77.66
2023-04-05T04:42:46.505Z,76.82
2023-04-05T04:43:45.987Z,77.45
2023-04-05T04:44:45.750Z,77.66
2023-04-05T04:45:45.793Z,78.72
2023-04-05T04:46:45.711Z,80.40
2023-04-05T04:47:45.708Z,80.19
2023-04-05T04:48:45.676Z,81.24
2023-04-05T04:49:45.676Z,80.82
2023-04-05T04:50:45.676Z,80.82
2023-04-05T04:51:45.696Z,81.70
2023-04-05T04:52:45.608Z,81.49
2023-04-05T04:53:47.145Z,80.12
2023-04-05T04:54:45.606Z,79.38
2023-04-05T04:55:45.601Z,79.60
2023-04-05T04:56:45.632Z,79.49
2023-04-05T04:57:45.832Z,80.02
2023-04-05T04:58:45.557Z,81.17
2023-04-05T04:59:45.555Z,80.44
2023-04-05T05:00:45.639Z,80.44
2023-04-05T05:01:45.524Z,79.17
2023-04-05T05:02:45.522Z,80.54
2023-04-05T05:03:45.504Z,80.54
2023-04-05T05:04:45.484Z,80.96
2023-04-05T05:05:45.475Z,80.96
2023-04-05T05:06:45.464Z,81.59
2023-04-05T05:07:45.430Z,81.91
2023-04-05T05:08:45.439Z,79.49
2023-04-05T05:09:45.426Z,78.02
2023-04-05T05:10:45.413Z,77.59
2023-04-05T05:11:45.395Z,78.02
2023-04-05T05:12:45.350Z,78.72
2023-04-05T05:13:48.590Z,79.35
2023-04-05T05:14:46.398Z,79.14
2023-04-05T05:15:46.011Z,78.82
2023-04-05T05:16:45.352Z,80.19
2023-04-05T05:17:45.346Z,80.93
2023-04-05T05:18:45.303Z,81.66
2023-04-05T05:19:45.309Z,82.82
2023-04-05T05:20:45.284Z,83.76
2023-04-05T05:21:45.264Z,84.71
2023-04-05T05:22:45.274Z,84.61
2023-04-05T05:23:45.249Z,84.40
2023-04-05T05:24:45.906Z,83.34
2023-04-05T05:25:45.228Z,82.82
2023-04-05T05:26:45.897Z,82.19
2023-04-05T05:27:45.214Z,82.29
2023-04-05T05:28:45.244Z,83.24
2023-04-05T05:29:45.161Z,84.29
2023-04-05T05:30:45.258Z,86.51
2023-04-05T05:31:45.166Z,84.08
2023-04-05T05:32:45.848Z,83.45
2023-04-05T05:33:45.114Z,82.50
2023-04-05T05:34:45.791Z,83.45
2023-04-05T05:35:45.123Z,83.14
2023-04-05T05:36:45.086Z,81.87
2023-04-05T05:37:45.039Z,81.66
2023-04-05T05:38:45.049Z,82.08
2023-04-05T05:39:45.046Z,82.29
2023-04-05T05:40:45.020Z,82.50
2023-04-05T05:41:45.052Z,82.36
2023-04-05T05:42:44.987Z,81.94
2023-04-05T05:43:44.984Z,80.89
2023-04-05T05:44:45.643Z,80.47
2023-04-05T05:45:44.967Z,80.36
2023-04-05T05:46:45.086Z,80.54
2023-04-05T05:47:45.016Z,81.06
2023-04-05T05:48:44.922Z,81.80
2023-04-05T05:49:45.610Z,82.60
2023-04-05T05:50:44.890Z,83.02
2023-04-05T05:51:45.560Z,83.23
2023-04-05T05:52:44.840Z,82.88
2023-04-05T05:53:44.872Z,83.40
2023-04-05T05:54:44.849Z,84.03
2023-04-05T05:55:44.875Z,85.68
2023-04-05T05:56:44.830Z,85.99
2023-04-05T05:57:44.852Z,86.20
2023-04-05T05:58:44.792Z,86.58
2023-04-05T05:59:44.790Z,87.00
2023-04-05T06:00:44.768Z,87.70
2023-04-05T06:01:44.753Z,90.00
2023-04-05T06:02:44.831Z,90.11
2023-04-05T06:03:44.857Z,91.16
2023-04-05T06:04:44.738Z,91.75
2023-04-05T06:05:44.723Z,91.33
2023-04-05T06:06:44.685Z,92.23
2023-04-05T06:07:44.221Z,92.86
2023-04-05T06:08:44.685Z,92.96
2023-04-05T06:09:44.655Z,92.65
2023-04-05T06:10:44.635Z,92.71
2023-04-05T06:11:55.617Z,93.44
2023-04-05T06:12:45.584Z,92.71
2023-04-05T06:13:44.615Z,92.23
2023-04-05T06:14:44.596Z,91.18
2023-04-05T06:15:44.586Z,91.87
2023-04-05T06:16:44.723Z,92.08
2023-04-05T06:17:44.579Z,92.82
2023-04-05T06:18:44.583Z,93.02
2023-04-05T06:19:45.208Z,93.55
2023-04-05T06:20:45.209Z,93.19
2023-04-05T06:21:44.494Z,92.57
2023-04-05T06:22:44.480Z,92.04
2023-04-05T06:23:44.462Z,92.88
2023-04-05T06:24:44.453Z,92.14
2023-04-05T06:25:44.463Z,92.77
2023-04-05T06:26:44.456Z,93.40
2023-04-05T06:27:45.105Z,93.08
2023-04-05T06:28:44.418Z,92.98
2023-04-05T06:29:45.062Z,93.46
2023-04-05T06:30:44.371Z,93.82
2023-04-05T06:31:44.444Z,93.46
2023-04-05T06:32:44.383Z,94.09
2023-04-05T06:33:44.343Z,94.93
2023-04-05T06:34:44.348Z,95.45
2023-04-05T06:35:44.334Z,95.45
2023-04-05T06:36:44.306Z,95.93
2023-04-05T06:37:44.285Z,94.99
2023-04-05T06:38:44.947Z,95.41
2023-04-05T06:39:44.936Z,96.25
2023-04-05T06:40:44.429Z,95.83
2023-04-05T06:41:45.081Z,96.56
2023-04-05T06:42:44.199Z,96.77
2023-04-05T06:43:44.206Z,96.25
2023-04-05T06:44:44.195Z,95.68
2023-04-05T06:45:44.272Z,96.51
2023-04-05T06:46:44.172Z,96.41
2023-04-05T06:47:44.149Z,97.04
2023-04-05T06:48:44.151Z,97.41
2023-04-05T06:49:43.894Z,98.04
2023-04-05T06:50:43.935Z,98.04
2023-04-05T06:51:44.113Z,97.72
2023-04-05T06:52:43.895Z,98.52
2023-04-05T06:53:44.743Z,98.10
2023-04-05T06:54:43.913Z,98.41
2023-04-05T06:55:44.058Z,98.52
2023-04-05T06:56:44.033Z,98.31
2023-04-05T06:57:44.026Z,98.93
2023-04-05T06:58:43.979Z,98.68
2023-04-05T06:59:44.979Z,99.62
2023-04-05T07:00:43.978Z,99.99
2023-04-05T07:01:44.034Z,99.89
2023-04-05T07:02:43.991Z,99.99
2023-04-05T07:03:44.221Z,99.99
2023-04-05T07:04:43.950Z,99.99
2023-04-05T07:05:44.930Z,99.99
2023-04-05T07:06:44.635Z,99.99
2023-04-05T07:07:44.612Z,99.99
2023-04-05T07:08:43.851Z,99.99
2023-04-05T07:09:43.879Z,99.99
2023-04-05T07:10:43.849Z,99.99
2023-04-05T07:11:43.842Z,99.99
2023-04-05T07:12:43.842Z,99.99
2023-04-05T07:13:43.796Z,89.07
2023-04-05T07:14:44.022Z,75.78
2023-04-05T07:15:43.966Z,71.81
2023-04-05T07:16:43.770Z,64.34
2023-04-05T07:17:43.774Z,60.68
2023-04-05T07:18:43.730Z,58.85
2023-04-05T07:19:43.731Z,56.82
2023-04-05T07:20:43.583Z,58.45
2023-04-05T07:21:43.720Z,58.62
2023-04-05T07:22:44.362Z,57.82
2023-04-05T07:23:43.661Z,54.95
2023-04-05T07:24:43.688Z,52.87
2023-04-05T07:25:43.648Z,52.36
2023-04-05T07:26:43.643Z,52.39
2023-04-05T07:27:43.630Z,50.89
2023-04-05T07:28:43.593Z,49.95
2023-04-05T07:29:43.955Z,49.02
2023-04-05T07:30:43.990Z,49.71
2023-04-05T07:31:43.629Z,48.14
2023-04-05T07:32:43.631Z,47.05
2023-04-05T07:33:43.526Z,46.11
2023-04-05T07:34:43.563Z,45.42
2023-04-05T07:35:43.580Z,46.56
2023-04-05T07:36:44.232Z,45.83
2023-04-05T07:37:43.514Z,44.77
2023-04-05T07:38:43.448Z,45.50
2023-04-05T07:39:43.467Z,44.95
2023-04-05T07:40:43.502Z,43.79
2023-04-05T07:41:43.654Z,43.71
2023-04-05T07:42:43.419Z,43.37
2023-04-05T07:43:43.378Z,42.84
2023-04-05T07:44:43.394Z,41.33
2023-04-05T07:45:43.384Z,43.30
2023-04-05T07:46:43.397Z,42.27
2023-04-05T07:47:43.389Z,41.33
2023-04-05T07:48:43.334Z,41.38
2023-04-05T07:49:43.325Z,40.54
2023-04-05T07:50:43.416Z,41.68
2023-04-05T07:51:43.314Z,41.54
2023-04-05T07:52:44.012Z,41.09
2023-04-05T07:53:43.264Z,40.61
2023-04-05T07:54:43.260Z,41.33
2023-04-05T07:55:43.294Z,39.96
2023-04-05T07:56:43.253Z,40.09
2023-04-05T07:57:43.913Z,40.30
2023-04-05T07:58:43.219Z,40.40
2023-04-05T07:59:43.215Z,40.08
2023-04-05T08:00:42.820Z,41.30
2023-04-05T08:01:43.175Z,39.21
2023-04-05T08:02:43.257Z,37.35
2023-04-05T08:03:43.922Z,37.01
2023-04-05T08:04:43.178Z,36.39
2023-04-05T08:05:42.420Z,35.17
2023-04-05T08:06:42.446Z,36.66
2023-04-05T08:07:43.126Z,37.42
2023-04-05T08:08:42.471Z,40.03
2023-04-05T08:09:43.055Z,39.73
2023-04-05T08:10:43.293Z,39.32
2023-04-05T08:11:43.038Z,39.20
2023-04-05T08:12:43.027Z,39.47
2023-04-05T08:13:42.452Z,38.37
2023-04-05T08:14:42.429Z,37.34
2023-04-05T08:15:43.667Z,37.51
2023-04-05T08:16:43.012Z,37.51
2023-04-05T08:17:43.005Z,37.83
2023-04-05T08:18:42.925Z,37.05
2023-04-05T08:19:42.921Z,37.02
2023-04-05T08:20:43.083Z,37.87
2023-04-05T08:21:42.900Z,38.15
2023-04-05T08:22:42.903Z,38.53
2023-04-05T08:23:43.545Z,40.56
2023-04-05T08:24:42.898Z,39.71
2023-04-05T08:25:43.526Z,38.70
2023-04-05T08:26:42.850Z,38.61
2023-04-05T08:27:42.869Z,38.31
2023-04-05T08:28:42.801Z,37.90
2023-04-05T08:29:42.797Z,37.27
2023-04-05T08:30:42.774Z,37.76
2023-04-05T08:31:42.796Z,36.82
2023-04-05T08:32:42.752Z,36.25
2023-04-05T08:33:42.717Z,35.77
2023-04-05T08:34:42.731Z,36.61
2023-04-05T08:35:42.738Z,36.05
2023-04-05T08:36:42.708Z,35.19
2023-04-05T08:37:43.380Z,35.75
2023-04-05T08:38:41.991Z,37.27
2023-04-05T08:39:42.663Z,36.16
2023-04-05T08:40:42.948Z,36.76
2023-04-05T08:41:42.084Z,35.12
2023-04-05T08:42:42.644Z,35.09
2023-04-05T08:43:43.262Z,34.39
2023-04-05T08:44:42.613Z,36.66
2023-04-05T08:45:42.578Z,36.05
2023-04-05T08:46:42.566Z,34.60
2023-04-05T08:47:42.603Z,35.53
2023-04-05T08:48:43.195Z,35.34
2023-04-05T08:49:42.570Z,37.46
2023-04-05T08:50:43.235Z,37.39
2023-04-05T08:51:42.512Z,35.80
2023-04-05T08:52:42.466Z,35.99
2023-04-05T08:53:42.445Z,34.65
2023-04-05T08:54:42.467Z,34.14
2023-04-05T08:55:42.455Z,33.67
2023-04-05T08:56:42.433Z,35.09
2023-04-05T08:57:42.425Z,34.14
2023-04-05T08:58:42.394Z,33.97
2023-04-05T08:59:42.428Z,34.26
2023-04-05T09:00:42.526Z,34.91
2023-04-05T09:01:42.453Z,34.39
2023-04-05T09:02:41.700Z,34.97
2023-04-05T09:03:42.391Z,32.84
2023-04-05T09:04:42.321Z,33.38
2023-04-05T09:05:42.323Z,33.89
2023-04-05T09:06:42.046Z,33.45
2023-04-05T09:07:42.319Z,33.15
2023-04-05T09:08:42.140Z,33.67
2023-04-05T09:09:43.253Z,33.26
2023-04-05T09:10:42.098Z,33.79
2023-04-05T09:11:42.222Z,35.33
2023-04-05T09:12:42.242Z,33.89
2023-04-05T09:13:42.182Z,33.55
2023-04-05T09:14:42.886Z,33.33
2023-04-05T09:15:42.615Z,32.90
2023-04-05T09:16:42.359Z,33.37
2023-04-05T09:17:42.058Z,31.84
2023-04-05T09:18:43.060Z,31.85
2023-04-05T09:19:42.340Z,32.29
2023-04-05T09:20:42.287Z,31.88
2023-04-05T09:21:42.073Z,32.39
2023-04-05T09:22:42.050Z,31.97
2023-04-05T09:23:42.067Z,31.51
2023-04-05T09:24:42.814Z,32.31
2023-04-05T09:25:42.042Z,31.81
2023-04-05T09:26:42.059Z,33.07
2023-04-05T09:27:42.711Z,33.19
2023-04-05T09:28:42.715Z,33.06
2023-04-05T09:29:42.727Z,32.86
2023-04-05T09:30:42.186Z,32.67
2023-04-05T09:31:41.970Z,32.74
2023-04-05T09:32:41.981Z,32.81
2023-04-05T09:33:43.287Z,30.86
2023-04-05T09:34:41.900Z,30.48
2023-04-05T09:35:42.131Z,30.60
2023-04-05T09:36:41.876Z,31.77
2023-04-05T09:37:41.865Z,30.47
2023-04-05T09:38:41.868Z,30.87
2023-04-05T09:39:41.817Z,30.87
2023-04-05T09:40:42.573Z,30.89
2023-04-05T09:41:41.839Z,32.98
2023-04-05T09:42:41.059Z,32.77
2023-04-05T09:43:42.501Z,33.38
2023-04-05T09:44:41.754Z,32.93
2023-04-05T09:45:41.782Z,32.17
2023-04-05T09:46:42.565Z,32.18
2023-04-05T09:47:41.838Z,33.33
2023-04-05T09:48:41.726Z,32.10
2023-04-05T09:49:41.724Z,31.28
2023-04-05T09:50:41.307Z,31.38
2023-04-05T09:51:41.692Z,30.83
2023-04-05T09:52:41.091Z,32.73
2023-04-05T09:53:41.655Z,30.68
2023-04-05T09:54:41.640Z,30.98
2023-04-05T09:55:42.739Z,30.57
2023-04-05T09:56:41.633Z,30.34
2023-04-05T09:57:41.621Z,29.72
2023-04-05T09:58:40.835Z,31.74
2023-04-05T09:59:41.542Z,29.96
2023-04-05T10:00:41.712Z,31.18
2023-04-05T10:01:41.817Z,31.70
2023-04-05T10:02:42.446Z,31.09
2023-04-05T10:03:41.664Z,30.91
2023-04-05T10:04:41.488Z,32.05
2023-04-05T10:05:41.490Z,32.47
2023-04-05T10:06:41.194Z,32.25
2023-04-05T10:07:41.452Z,31.32
2023-04-05T10:08:41.449Z,32.23
2023-04-05T10:09:41.432Z,32.32
2023-04-05T10:10:41.522Z,32.29
2023-04-05T10:11:41.408Z,31.78
2023-04-05T10:12:41.458Z,31.16
2023-04-05T10:13:41.406Z,30.83
2023-04-05T10:14:41.075Z,31.82
2023-04-05T10:15:41.349Z,30.12
2023-04-05T10:16:41.413Z,30.63
2023-04-05T10:17:42.027Z,31.05
2023-04-05T10:18:41.318Z,31.78
2023-04-05T10:19:41.296Z,31.45
2023-04-05T10:20:42.442Z,31.00
2023-04-05T10:21:41.280Z,29.89
2023-04-05T10:22:40.559Z,30.47
2023-04-05T10:23:41.255Z,29.96
2023-04-05T10:24:41.205Z,28.68
2023-04-05T10:25:41.223Z,29.78
2023-04-05T10:26:41.206Z,28.44
2023-04-05T10:27:41.197Z,28.14
2023-04-05T10:28:41.204Z,28.32
2023-04-05T10:29:41.161Z,29.46
2023-04-05T10:30:40.730Z,30.44
2023-04-05T10:31:41.239Z,31.76
2023-04-05T10:32:41.187Z,31.42
2023-04-05T10:33:42.468Z,31.15
2023-04-05T10:34:41.174Z,32.67
2023-04-05T10:35:41.102Z,33.75
2023-04-05T10:36:41.080Z,31.49
2023-04-05T10:37:41.100Z,30.54
2023-04-05T10:38:40.560Z,30.30
2023-04-05T10:39:41.708Z,30.00
2023-04-05T10:40:41.276Z,31.12
2023-04-05T10:41:41.036Z,30.02
2023-04-05T10:42:41.038Z,30.32
2023-04-05T10:43:41.068Z,30.79
2023-04-05T10:44:41.726Z,31.30
2023-04-05T10:45:41.232Z,31.46
2023-04-05T10:46:41.036Z,29.99
2023-04-05T10:47:40.998Z,28.54
2023-04-05T10:48:40.912Z,28.34
2023-04-05T10:49:41.576Z,29.10
2023-04-05T10:50:41.055Z,29.49
2023-04-05T10:51:40.872Z,28.83
2023-04-05T10:52:40.902Z,30.46
2023-04-05T10:53:41.582Z,29.75
2023-04-05T10:54:40.840Z,29.88
2023-04-05T10:55:40.854Z,30.02
2023-04-05T10:56:40.819Z,31.84
2023-04-05T10:57:40.151Z,32.35
2023-04-05T10:58:40.801Z,33.81
2023-04-05T10:59:40.923Z,30.24
2023-04-05T11:00:40.934Z,29.04
2023-04-05T11:01:40.819Z,28.85
2023-04-05T11:02:40.823Z,30.90
2023-04-05T11:03:40.749Z,29.88
2023-04-05T11:04:41.932Z,29.89
2023-04-05T11:05:40.732Z,30.28
2023-04-05T11:06:40.686Z,28.65
2023-04-05T11:07:40.669Z,29.19
2023-04-05T11:08:40.657Z,31.29
2023-04-05T11:09:40.652Z,30.07
2023-04-05T11:10:40.820Z,29.16
2023-04-05T11:11:41.291Z,31.38
2023-04-05T11:12:40.619Z,28.77
2023-04-05T11:13:40.620Z,30.30
2023-04-05T11:14:40.588Z,30.36
2023-04-05T11:15:40.559Z,28.94
2023-04-05T11:16:40.620Z,28.15
2023-04-05T11:17:40.561Z,27.03
2023-04-05T11:18:40.591Z,27.51
2023-04-05T11:19:41.631Z,27.10
2023-04-05T11:20:40.782Z,27.89
2023-04-05T11:21:40.497Z,26.87
2023-04-05T11:22:40.488Z,27.01
2023-04-05T11:23:40.468Z,28.58
2023-04-05T11:24:40.506Z,28.52
2023-04-05T11:25:40.414Z,29.33
2023-04-05T11:26:40.481Z,28.89
2023-04-05T11:27:40.416Z,28.69
2023-04-05T11:28:41.172Z,27.53
2023-04-05T11:29:40.395Z,29.50
2023-04-05T11:30:40.566Z,29.60
2023-04-05T11:31:40.398Z,30.84
2023-04-05T11:32:40.159Z,28.03
2023-04-05T11:33:39.881Z,28.66
2023-04-05T11:34:40.327Z,28.41
2023-04-05T11:35:40.169Z,31.70
2023-04-05T11:36:40.306Z,30.54
2023-04-05T11:37:40.292Z,28.44
2023-04-05T11:38:40.264Z,29.95
2023-04-05T11:39:40.263Z,27.40
2023-04-05T11:40:40.355Z,27.81
2023-04-05T11:41:40.190Z,26.31
2023-04-05T11:42:40.229Z,27.09
2023-04-05T11:43:40.146Z,26.40
2023-04-05T11:44:40.208Z,27.28
2023-04-05T11:45:40.174Z,27.59
2023-04-05T11:46:40.209Z,26.91
2023-04-05T11:47:41.219Z,26.29
2023-04-05T11:48:40.157Z,28.45
2023-04-05T11:49:40.206Z,28.16
2023-04-05T11:50:40.951Z,28.28
2023-04-05T11:51:40.142Z,30.77
2023-04-05T11:52:40.829Z,28.12
2023-04-05T11:53:40.821Z,27.18
2023-04-05T11:54:40.089Z,28.50
2023-04-05T11:55:40.194Z,31.21
2023-04-05T11:56:40.042Z,31.26
2023-04-05T11:57:40.043Z,29.53
2023-04-05T11:58:40.091Z,29.63
2023-04-05T11:59:40.005Z,30.24
2023-04-05T12:00:40.305Z,30.93
2023-04-05T12:01:39.950Z,30.07
2023-04-05T12:02:40.068Z,29.96
2023-04-05T12:03:40.080Z,28.52
2023-04-05T12:04:39.957Z,28.89
2023-04-05T12:05:40.154Z,30.70
2023-04-05T12:06:39.875Z,32.24
2023-04-05T12:07:39.914Z,30.96
2023-04-05T12:08:39.893Z,30.24
2023-04-05T12:09:39.880Z,29.91
2023-04-05T12:10:39.849Z,29.72
2023-04-05T12:11:40.089Z,30.35
2023-04-05T12:12:39.855Z,29.53
2023-04-05T12:13:39.180Z,28.33
2023-04-05T12:14:39.815Z,29.63
2023-04-05T12:15:40.161Z,29.22
2023-04-05T12:16:39.792Z,28.94
2023-04-05T12:17:40.477Z,29.63
2023-04-05T12:18:40.427Z,29.24
2023-04-05T12:19:39.735Z,29.86
2023-04-05T12:20:39.179Z,30.13
2023-04-05T12:21:39.052Z,29.92
2023-04-05T12:22:39.706Z,28.89
2023-04-05T12:23:39.679Z,27.97
2023-04-05T12:24:40.337Z,28.82
2023-04-05T12:25:39.787Z,28.49
2023-04-05T12:26:40.048Z,30.68
2023-04-05T12:27:39.864Z,28.72
2023-04-05T12:28:39.618Z,27.09
2023-04-05T12:29:39.605Z,27.58
2023-04-05T12:30:39.581Z,28.38
2023-04-05T12:31:39.677Z,28.20
2023-04-05T12:32:39.612Z,28.74
2023-04-05T12:33:39.560Z,29.14
2023-04-05T12:34:39.534Z,29.55
2023-04-05T12:35:39.689Z,28.32
2023-04-05T12:36:38.944Z,26.72
2023-04-05T12:37:39.498Z,26.29
2023-04-05T12:38:39.489Z,28.70
2023-04-05T12:39:39.465Z,27.14
2023-04-05T12:40:39.450Z,28.97
2023-04-05T12:41:39.434Z,29.26
2023-04-05T12:42:39.446Z,28.75
2023-04-05T12:43:39.725Z,29.40
2023-04-05T12:44:38.663Z,29.41
2023-04-05T12:45:38.758Z,32.17
2023-04-05T12:46:39.348Z,31.00
2023-04-05T12:47:39.401Z,29.91
2023-04-05T12:48:39.351Z,31.42
2023-04-05T12:49:39.388Z,29.07
2023-04-05T12:50:39.327Z,30.57
2023-04-05T12:51:39.351Z,30.88
2023-04-05T12:52:38.723Z,31.38